sensor_id;sensor_type;location;lat;lon;timestamp;temperature;humidity
53844;DHT22;39744;53.314;5.710;2022-12-07T00:01:24;5.20;99.90
53844;DHT22;39744;53.314;5.710;2022-12-07T00:03:52;5.30;99.90
53844;DHT22;39744;53.314;5.710;2022-12-07T00:06:18;5.30;99.90
53844;DHT22;39744;53.314;5.710;2022-12-07T00:08:45;5.40;99.90
53844;DHT22;39744;53.314;5.710;2022-12-07T00:11:13;5.40;99.90
53844;DHT22;39744;53.314;5.710;2022-12-07T00:13:40;5.30;99.90
53844;DHT22;39744;53.314;5.710;2022-12-07T00:16:16;5.30;99.90
53844;DHT22;39744;53.314;5.710;2022-12-07T00:18:43;5.20;99.90
53844;DHT22;39744;53.314;5.710;2022-12-07T00:21:17;5.20;99.90
53844;DHT22;39744;53.314;5.710;2022-12-07T00:23:44;5.10;99.90
53844;DHT22;39744;53.314;5.710;2022-12-07T00:26:12;5.00;99.90
53844;DHT22;39744;53.314;5.710;2022-12-07T00:28:38;5.00;99.90
53844;DHT22;39744;53.314;5.710;2022-12-07T00:31:10;5.00;99.90
53844;DHT22;39744;53.314;5.710;2022-12-07T00:33:37;5.00;99.90
53844;DHT22;39744;53.314;5.710;2022-12-07T00:36:06;4.90;99.90
53844;DHT22;39744;53.314;5.710;2022-12-07T00:38:34;5.00;99.90
53844;DHT22;39744;53.314;5.710;2022-12-07T00:41:02;5.00;99.90
53844;DHT22;39744;53.314;5.710;2022-12-07T00:43:29;5.00;99.90
53844;DHT22;39744;53.314;5.710;2022-12-07T00:45:55;5.00;99.90
53844;DHT22;39744;53.314;5.710;2022-12-07T00:48:21;4.90;99.90
53844;DHT22;39744;53.314;5.710;2022-12-07T00:50:47;5.00;99.90
53844;DHT22;39744;53.314;5.710;2022-12-07T00:53:13;5.00;99.90
53844;DHT22;39744;53.314;5.710;2022-12-07T00:55:39;5.00;99.90
53844;DHT22;39744;53.314;5.710;2022-12-07T00:58:05;5.20;99.90
53844;DHT22;39744;53.314;5.710;2022-12-07T01:00:30;5.20;99.90
53844;DHT22;39744;53.314;5.710;2022-12-07T01:02:56;5.30;99.90
53844;DHT22;39744;53.314;5.710;2022-12-07T01:05:22;5.10;99.90
53844;DHT22;39744;53.314;5.710;2022-12-07T01:07:47;5.10;99.90
53844;DHT22;39744;53.314;5.710;2022-12-07T01:10:14;5.10;99.90
53844;DHT22;39744;53.314;5.710;2022-12-07T01:12:40;5.10;99.90
53844;DHT22;39744;53.314;5.710;2022-12-07T01:15:07;4.70;99.90
53844;DHT22;39744;53.314;5.710;2022-12-07T01:17:34;5.00;99.90
53844;DHT22;39744;53.314;5.710;2022-12-07T01:19:59;4.80;99.90
53844;DHT22;39744;53.314;5.710;2022-12-07T01:22:25;4.80;99.90
53844;DHT22;39744;53.314;5.710;2022-12-07T01:24:51;4.80;99.90
53844;DHT22;39744;53.314;5.710;2022-12-07T01:27:16;4.80;99.90
53844;DHT22;39744;53.314;5.710;2022-12-07T01:29:42;4.90;99.90
53844;DHT22;39744;53.314;5.710;2022-12-07T01:32:08;5.00;99.90
53844;DHT22;39744;53.314;5.710;2022-12-07T01:34:33;5.00;99.90
53844;DHT22;39744;53.314;5.710;2022-12-07T01:36:59;5.00;99.90
53844;DHT22;39744;53.314;5.710;2022-12-07T01:39:25;5.10;99.90
53844;DHT22;39744;53.314;5.710;2022-12-07T01:41:53;5.20;99.90
53844;DHT22;39744;53.314;5.710;2022-12-07T01:44:22;5.20;99.90
53844;DHT22;39744;53.314;5.710;2022-12-07T01:46:54;5.30;99.90
53844;DHT22;39744;53.314;5.710;2022-12-07T01:49:46;5.30;99.90
53844;DHT22;39744;53.314;5.710;2022-12-07T01:52:29;5.30;99.90
53844;DHT22;39744;53.314;5.710;2022-12-07T01:55:06;5.20;99.90
53844;DHT22;39744;53.314;5.710;2022-12-07T01:57:34;5.20;99.90
53844;DHT22;39744;53.314;5.710;2022-12-07T02:00:05;5.10;99.90
53844;DHT22;39744;53.314;5.710;2022-12-07T02:02:34;5.10;99.90
53844;DHT22;39744;53.314;5.710;2022-12-07T02:05:02;5.10;99.90
53844;DHT22;39744;53.314;5.710;2022-12-07T02:07:29;5.20;99.90
53844;DHT22;39744;53.314;5.710;2022-12-07T02:09:55;5.30;99.90
53844;DHT22;39744;53.314;5.710;2022-12-07T02:12:21;5.40;99.90
53844;DHT22;39744;53.314;5.710;2022-12-07T02:14:49;5.40;99.90
53844;DHT22;39744;53.314;5.710;2022-12-07T02:28:56;5.30;99.90
53844;DHT22;39744;53.314;5.710;2022-12-07T02:31:30;5.30;99.90
53844;DHT22;39744;53.314;5.710;2022-12-07T02:36:53;5.20;99.90
53844;DHT22;39744;53.314;5.710;2022-12-07T02:39:41;5.10;99.90
53844;DHT22;39744;53.314;5.710;2022-12-07T02:42:14;5.10;99.90
53844;DHT22;39744;53.314;5.710;2022-12-07T02:44:40;5.20;99.90
53844;DHT22;39744;53.314;5.710;2022-12-07T02:47:09;5.20;99.90
53844;DHT22;39744;53.314;5.710;2022-12-07T02:49:37;5.20;99.90
53844;DHT22;39744;53.314;5.710;2022-12-07T02:52:04;5.10;99.90
53844;DHT22;39744;53.314;5.710;2022-12-07T02:54:30;5.10;99.90
53844;DHT22;39744;53.314;5.710;2022-12-07T02:57:09;5.20;99.90
53844;DHT22;39744;53.314;5.710;2022-12-07T03:00:07;5.20;99.90
53844;DHT22;39744;53.314;5.710;2022-12-07T03:02:58;5.20;99.90
53844;DHT22;39744;53.314;5.710;2022-12-07T03:08:43;5.00;99.90
53844;DHT22;39744;53.314;5.710;2022-12-07T03:11:13;5.00;99.90
53844;DHT22;39744;53.314;5.710;2022-12-07T03:13:50;5.10;99.90
53844;DHT22;39744;53.314;5.710;2022-12-07T03:19:05;5.20;99.90
53844;DHT22;39744;53.314;5.710;2022-12-07T03:21:40;5.20;99.90
53844;DHT22;39744;53.314;5.710;2022-12-07T03:24:14;5.20;99.90
53844;DHT22;39744;53.314;5.710;2022-12-07T03:26:48;5.10;99.90
53844;DHT22;39744;53.314;5.710;2022-12-07T03:29:27;5.30;99.90
53844;DHT22;39744;53.314;5.710;2022-12-07T03:32:08;5.20;99.90
53844;DHT22;39744;53.314;5.710;2022-12-07T03:34:57;5.20;99.90
53844;DHT22;39744;53.314;5.710;2022-12-07T03:37:30;5.00;99.90
53844;DHT22;39744;53.314;5.710;2022-12-07T03:42:30;4.90;99.90
53844;DHT22;39744;53.314;5.710;2022-12-07T03:44:56;4.90;99.90
53844;DHT22;39744;53.314;5.710;2022-12-07T03:47:32;4.90;99.90
53844;DHT22;39744;53.314;5.710;2022-12-07T03:50:09;4.80;99.90
53844;DHT22;39744;53.314;5.710;2022-12-07T03:52:48;4.80;99.90
53844;DHT22;39744;53.314;5.710;2022-12-07T03:55:30;4.70;99.90
53844;DHT22;39744;53.314;5.710;2022-12-07T03:58:00;4.70;99.90
53844;DHT22;39744;53.314;5.710;2022-12-07T04:00:28;4.70;99.90
53844;DHT22;39744;53.314;5.710;2022-12-07T04:02:55;4.70;99.90
53844;DHT22;39744;53.314;5.710;2022-12-07T04:05:21;4.70;99.90
53844;DHT22;39744;53.314;5.710;2022-12-07T04:07:46;4.60;99.90
53844;DHT22;39744;53.314;5.710;2022-12-07T04:10:12;4.60;99.90
53844;DHT22;39744;53.314;5.710;2022-12-07T04:12:38;4.60;99.90
53844;DHT22;39744;53.314;5.710;2022-12-07T04:15:04;4.80;99.90
53844;DHT22;39744;53.314;5.710;2022-12-07T04:17:30;4.80;99.90
53844;DHT22;39744;53.314;5.710;2022-12-07T04:19:56;4.80;99.90
53844;DHT22;39744;53.314;5.710;2022-12-07T04:22:21;4.70;99.90
53844;DHT22;39744;53.314;5.710;2022-12-07T04:24:47;4.60;99.90
53844;DHT22;39744;53.314;5.710;2022-12-07T04:27:12;4.60;99.90
53844;DHT22;39744;53.314;5.710;2022-12-07T04:29:38;4.60;99.90
53844;DHT22;39744;53.314;5.710;2022-12-07T04:32:04;4.60;99.90
53844;DHT22;39744;53.314;5.710;2022-12-07T04:34:29;4.70;99.90
53844;DHT22;39744;53.314;5.710;2022-12-07T04:36:55;4.80;99.90
53844;DHT22;39744;53.314;5.710;2022-12-07T04:39:24;4.90;99.90
53844;DHT22;39744;53.314;5.710;2022-12-07T04:41:50;5.00;99.90
53844;DHT22;39744;53.314;5.710;2022-12-07T04:44:16;5.00;99.90
53844;DHT22;39744;53.314;5.710;2022-12-07T04:46:42;5.10;99.90
53844;DHT22;39744;53.314;5.710;2022-12-07T04:49:09;5.10;99.90
53844;DHT22;39744;53.314;5.710;2022-12-07T04:51:34;5.10;99.90
53844;DHT22;39744;53.314;5.710;2022-12-07T04:54:00;5.00;99.90
53844;DHT22;39744;53.314;5.710;2022-12-07T04:56:26;5.00;99.90
53844;DHT22;39744;53.314;5.710;2022-12-07T04:58:53;4.90;99.90
53844;DHT22;39744;53.314;5.710;2022-12-07T05:01:20;4.70;99.90
53844;DHT22;39744;53.314;5.710;2022-12-07T05:03:45;4.90;99.90
53844;DHT22;39744;53.314;5.710;2022-12-07T05:06:12;4.90;99.90
53844;DHT22;39744;53.314;5.710;2022-12-07T05:08:38;4.90;99.90
53844;DHT22;39744;53.314;5.710;2022-12-07T05:11:05;4.90;99.90
53844;DHT22;39744;53.314;5.710;2022-12-07T05:13:31;4.80;99.90
53844;DHT22;39744;53.314;5.710;2022-12-07T05:15:57;4.70;99.90
53844;DHT22;39744;53.314;5.710;2022-12-07T05:18:23;4.60;99.90
53844;DHT22;39744;53.314;5.710;2022-12-07T05:20:48;4.60;99.90
53844;DHT22;39744;53.314;5.710;2022-12-07T05:23:14;4.50;99.90
53844;DHT22;39744;53.314;5.710;2022-12-07T05:25:40;4.50;99.90
53844;DHT22;39744;53.314;5.710;2022-12-07T05:28:06;3.90;99.90
53844;DHT22;39744;53.314;5.710;2022-12-07T05:30:32;4.40;99.90
53844;DHT22;39744;53.314;5.710;2022-12-07T05:32:57;4.50;99.90
53844;DHT22;39744;53.314;5.710;2022-12-07T05:35:25;4.60;99.90
53844;DHT22;39744;53.314;5.710;2022-12-07T05:37:50;4.80;99.90
53844;DHT22;39744;53.314;5.710;2022-12-07T05:40:16;4.90;99.90
53844;DHT22;39744;53.314;5.710;2022-12-07T05:42:42;4.90;99.90
53844;DHT22;39744;53.314;5.710;2022-12-07T05:45:09;4.90;99.90
53844;DHT22;39744;53.314;5.710;2022-12-07T05:47:35;4.80;99.90
53844;DHT22;39744;53.314;5.710;2022-12-07T05:50:01;4.80;99.90
53844;DHT22;39744;53.314;5.710;2022-12-07T05:52:28;4.80;99.90
53844;DHT22;39744;53.314;5.710;2022-12-07T05:54:53;4.80;99.90
53844;DHT22;39744;53.314;5.710;2022-12-07T05:57:19;4.80;99.90
53844;DHT22;39744;53.314;5.710;2022-12-07T05:59:46;4.80;99.90
53844;DHT22;39744;53.314;5.710;2022-12-07T06:02:13;4.80;99.90
53844;DHT22;39744;53.314;5.710;2022-12-07T06:04:41;4.80;99.90
53844;DHT22;39744;53.314;5.710;2022-12-07T06:07:07;4.80;99.90
53844;DHT22;39744;53.314;5.710;2022-12-07T06:09:35;4.90;99.90
53844;DHT22;39744;53.314;5.710;2022-12-07T06:12:00;5.00;99.90
53844;DHT22;39744;53.314;5.710;2022-12-07T06:14:45;5.10;99.90
53844;DHT22;39744;53.314;5.710;2022-12-07T06:17:11;5.20;99.90
53844;DHT22;39744;53.314;5.710;2022-12-07T06:19:37;5.20;99.90
53844;DHT22;39744;53.314;5.710;2022-12-07T06:22:07;5.10;99.90
53844;DHT22;39744;53.314;5.710;2022-12-07T06:24:34;5.10;99.90
53844;DHT22;39744;53.314;5.710;2022-12-07T06:27:00;5.00;99.90
53844;DHT22;39744;53.314;5.710;2022-12-07T06:29:26;5.00;99.90
53844;DHT22;39744;53.314;5.710;2022-12-07T06:31:52;4.80;99.90
53844;DHT22;39744;53.314;5.710;2022-12-07T06:34:19;4.70;99.90
53844;DHT22;39744;53.314;5.710;2022-12-07T06:36:46;4.60;99.90
53844;DHT22;39744;53.314;5.710;2022-12-07T06:39:17;4.60;99.90
53844;DHT22;39744;53.314;5.710;2022-12-07T06:41:43;4.60;99.90
53844;DHT22;39744;53.314;5.710;2022-12-07T06:44:08;4.50;99.90
53844;DHT22;39744;53.314;5.710;2022-12-07T06:46:34;4.50;99.90
53844;DHT22;39744;53.314;5.710;2022-12-07T06:49:04;4.40;99.90
53844;DHT22;39744;53.314;5.710;2022-12-07T06:51:30;4.50;99.90
53844;DHT22;39744;53.314;5.710;2022-12-07T06:53:57;4.50;99.90
53844;DHT22;39744;53.314;5.710;2022-12-07T06:56:22;4.80;99.90
53844;DHT22;39744;53.314;5.710;2022-12-07T06:58:48;4.80;99.90
53844;DHT22;39744;53.314;5.710;2022-12-07T07:01:16;4.80;99.90
53844;DHT22;39744;53.314;5.710;2022-12-07T07:03:43;4.80;99.90
53844;DHT22;39744;53.314;5.710;2022-12-07T07:06:09;4.80;99.90
53844;DHT22;39744;53.314;5.710;2022-12-07T07:08:36;4.90;99.90
53844;DHT22;39744;53.314;5.710;2022-12-07T07:11:02;5.00;99.90
53844;DHT22;39744;53.314;5.710;2022-12-07T07:13:28;5.00;99.90
53844;DHT22;39744;53.314;5.710;2022-12-07T07:15:54;5.00;99.90
53844;DHT22;39744;53.314;5.710;2022-12-07T07:18:20;5.10;99.90
53844;DHT22;39744;53.314;5.710;2022-12-07T07:20:47;5.20;99.90
53844;DHT22;39744;53.314;5.710;2022-12-07T07:23:13;5.10;99.90
53844;DHT22;39744;53.314;5.710;2022-12-07T07:25:39;5.10;99.90
53844;DHT22;39744;53.314;5.710;2022-12-07T07:28:04;4.90;99.90
53844;DHT22;39744;53.314;5.710;2022-12-07T07:30:30;4.80;99.90
53844;DHT22;39744;53.314;5.710;2022-12-07T07:33:00;4.70;99.90
53844;DHT22;39744;53.314;5.710;2022-12-07T07:35:28;4.60;99.90
53844;DHT22;39744;53.314;5.710;2022-12-07T07:37:54;4.50;99.90
53844;DHT22;39744;53.314;5.710;2022-12-07T07:40:20;4.50;99.90
53844;DHT22;39744;53.314;5.710;2022-12-07T07:42:53;4.50;99.90
53844;DHT22;39744;53.314;5.710;2022-12-07T07:45:23;4.50;99.90
53844;DHT22;39744;53.314;5.710;2022-12-07T07:47:49;4.50;99.90
53844;DHT22;39744;53.314;5.710;2022-12-07T07:50:15;4.50;99.90
53844;DHT22;39744;53.314;5.710;2022-12-07T07:52:41;4.60;99.90
53844;DHT22;39744;53.314;5.710;2022-12-07T07:55:08;4.70;99.90
53844;DHT22;39744;53.314;5.710;2022-12-07T07:57:37;4.90;99.90
53844;DHT22;39744;53.314;5.710;2022-12-07T08:00:12;4.90;99.90
53844;DHT22;39744;53.314;5.710;2022-12-07T08:02:39;4.70;99.90
53844;DHT22;39744;53.314;5.710;2022-12-07T08:05:05;4.60;99.90
53844;DHT22;39744;53.314;5.710;2022-12-07T08:07:31;4.50;99.90
53844;DHT22;39744;53.314;5.710;2022-12-07T08:09:56;4.50;99.90
53844;DHT22;39744;53.314;5.710;2022-12-07T08:12:22;4.50;99.90
53844;DHT22;39744;53.314;5.710;2022-12-07T08:14:48;4.50;99.90
53844;DHT22;39744;53.314;5.710;2022-12-07T08:17:13;4.60;99.90
53844;DHT22;39744;53.314;5.710;2022-12-07T08:19:39;4.60;99.90
53844;DHT22;39744;53.314;5.710;2022-12-07T08:22:05;4.70;99.90
53844;DHT22;39744;53.314;5.710;2022-12-07T08:24:33;4.80;99.90
53844;DHT22;39744;53.314;5.710;2022-12-07T08:26:59;4.90;99.90
53844;DHT22;39744;53.314;5.710;2022-12-07T08:29:25;4.90;99.90
53844;DHT22;39744;53.314;5.710;2022-12-07T08:31:50;4.90;99.90
53844;DHT22;39744;53.314;5.710;2022-12-07T08:34:16;4.90;99.90
53844;DHT22;39744;53.314;5.710;2022-12-07T08:36:42;4.80;99.90
53844;DHT22;39744;53.314;5.710;2022-12-07T08:39:07;4.80;99.90
53844;DHT22;39744;53.314;5.710;2022-12-07T08:41:33;4.80;99.90
53844;DHT22;39744;53.314;5.710;2022-12-07T08:43:59;4.80;99.90
53844;DHT22;39744;53.314;5.710;2022-12-07T08:46:37;4.80;99.90
53844;DHT22;39744;53.314;5.710;2022-12-07T08:49:39;4.80;99.90
53844;DHT22;39744;53.314;5.710;2022-12-07T08:51:58;4.80;99.90
53844;DHT22;39744;53.314;5.710;2022-12-07T08:54:23;4.80;99.90
53844;DHT22;39744;53.314;5.710;2022-12-07T08:56:49;4.80;99.90
53844;DHT22;39744;53.314;5.710;2022-12-07T08:59:17;4.80;99.90
53844;DHT22;39744;53.314;5.710;2022-12-07T09:01:44;4.90;99.90
53844;DHT22;39744;53.314;5.710;2022-12-07T09:04:10;5.10;99.90
53844;DHT22;39744;53.314;5.710;2022-12-07T09:06:36;5.20;99.90
53844;DHT22;39744;53.314;5.710;2022-12-07T09:09:03;5.40;99.90
53844;DHT22;39744;53.314;5.710;2022-12-07T09:11:29;5.40;99.90
53844;DHT22;39744;53.314;5.710;2022-12-07T09:13:55;5.30;99.90
53844;DHT22;39744;53.314;5.710;2022-12-07T09:16:21;5.30;99.90
53844;DHT22;39744;53.314;5.710;2022-12-07T09:18:47;5.20;99.90
53844;DHT22;39744;53.314;5.710;2022-12-07T09:21:12;5.20;99.90
53844;DHT22;39744;53.314;5.710;2022-12-07T09:23:38;5.10;99.90
53844;DHT22;39744;53.314;5.710;2022-12-07T09:26:04;5.00;99.90
53844;DHT22;39744;53.314;5.710;2022-12-07T09:28:33;5.00;99.90
53844;DHT22;39744;53.314;5.710;2022-12-07T09:30:59;5.10;99.90
53844;DHT22;39744;53.314;5.710;2022-12-07T09:33:24;5.10;99.90
53844;DHT22;39744;53.314;5.710;2022-12-07T09:35:51;5.20;99.90
53844;DHT22;39744;53.314;5.710;2022-12-07T09:38:17;5.20;99.90
53844;DHT22;39744;53.314;5.710;2022-12-07T09:40:47;5.30;99.90
53844;DHT22;39744;53.314;5.710;2022-12-07T09:43:15;5.40;99.90
53844;DHT22;39744;53.314;5.710;2022-12-07T09:45:43;5.40;99.90
53844;DHT22;39744;53.314;5.710;2022-12-07T09:48:24;5.50;99.90
53844;DHT22;39744;53.314;5.710;2022-12-07T09:50:51;5.70;99.90
53844;DHT22;39744;53.314;5.710;2022-12-07T09:53:26;5.70;99.90
53844;DHT22;39744;53.314;5.710;2022-12-07T09:55:52;5.60;99.90
53844;DHT22;39744;53.314;5.710;2022-12-07T09:58:27;6.00;99.90
53844;DHT22;39744;53.314;5.710;2022-12-07T10:01:15;5.80;99.90
53844;DHT22;39744;53.314;5.710;2022-12-07T10:03:59;5.50;99.90
53844;DHT22;39744;53.314;5.710;2022-12-07T10:06:31;5.30;99.90
53844;DHT22;39744;53.314;5.710;2022-12-07T10:08:57;5.30;99.90
53844;DHT22;39744;53.314;5.710;2022-12-07T10:11:26;5.30;99.90
53844;DHT22;39744;53.314;5.710;2022-12-07T10:13:52;5.30;99.90
53844;DHT22;39744;53.314;5.710;2022-12-07T10:18:51;5.20;99.90
53844;DHT22;39744;53.314;5.710;2022-12-07T10:21:21;6.70;99.90
53844;DHT22;39744;53.314;5.710;2022-12-07T10:26:37;5.30;99.90
53844;DHT22;39744;53.314;5.710;2022-12-07T10:29:14;5.30;99.90
53844;DHT22;39744;53.314;5.710;2022-12-07T10:31:42;5.40;99.90
53844;DHT22;39744;53.314;5.710;2022-12-07T10:34:36;4.70;99.90
53844;DHT22;39744;53.314;5.710;2022-12-07T10:42:23;5.70;99.90
53844;DHT22;39744;53.314;5.710;2022-12-07T10:45:03;5.70;99.90
53844;DHT22;39744;53.314;5.710;2022-12-07T10:47:44;5.80;99.90
53844;DHT22;39744;53.314;5.710;2022-12-07T10:56:37;6.00;99.90
53844;DHT22;39744;53.314;5.710;2022-12-07T11:05:11;6.20;99.90
53844;DHT22;39744;53.314;5.710;2022-12-07T11:07:53;6.10;99.90
53844;DHT22;39744;53.314;5.710;2022-12-07T11:10:46;5.90;99.90
53844;DHT22;39744;53.314;5.710;2022-12-07T11:13:25;5.70;99.90
53844;DHT22;39744;53.314;5.710;2022-12-07T11:21:44;4.30;99.90
53844;DHT22;39744;53.314;5.710;2022-12-07T11:24:32;4.10;99.90
53844;DHT22;39744;53.314;5.710;2022-12-07T11:27:10;4.20;99.90
53844;DHT22;39744;53.314;5.710;2022-12-07T11:35:08;4.60;99.90
53844;DHT22;39744;53.314;5.710;2022-12-07T11:37:37;4.80;99.90
53844;DHT22;39744;53.314;5.710;2022-12-07T11:43:17;4.80;99.90
53844;DHT22;39744;53.314;5.710;2022-12-07T11:45:48;4.80;99.90
53844;DHT22;39744;53.314;5.710;2022-12-07T11:48:24;4.90;99.90
53844;DHT22;39744;53.314;5.710;2022-12-07T11:50:57;4.90;99.90
53844;DHT22;39744;53.314;5.710;2022-12-07T11:53:36;5.30;99.90
53844;DHT22;39744;53.314;5.710;2022-12-07T11:56:14;5.20;99.90
53844;DHT22;39744;53.314;5.710;2022-12-07T12:04:04;5.10;99.90
53844;DHT22;39744;53.314;5.710;2022-12-07T12:06:31;5.10;99.90
53844;DHT22;39744;53.314;5.710;2022-12-07T12:09:00;5.10;99.90
53844;DHT22;39744;53.314;5.710;2022-12-07T12:11:39;5.20;99.90
53844;DHT22;39744;53.314;5.710;2022-12-07T12:14:40;5.30;99.90
53844;DHT22;39744;53.314;5.710;2022-12-07T12:20:32;5.30;99.90
53844;DHT22;39744;53.314;5.710;2022-12-07T12:33:46;5.40;99.90
53844;DHT22;39744;53.314;5.710;2022-12-07T12:36:17;5.30;99.90
53844;DHT22;39744;53.314;5.710;2022-12-07T12:38:52;5.30;99.90
53844;DHT22;39744;53.314;5.710;2022-12-07T12:46:50;5.30;99.90
53844;DHT22;39744;53.314;5.710;2022-12-07T12:51:45;5.30;99.90
53844;DHT22;39744;53.314;5.710;2022-12-07T12:57:00;5.10;99.90
53844;DHT22;39744;53.314;5.710;2022-12-07T12:59:38;5.10;99.90
53844;DHT22;39744;53.314;5.710;2022-12-07T13:02:30;5.10;99.90
53844;DHT22;39744;53.314;5.710;2022-12-07T13:04:58;5.20;99.90
53844;DHT22;39744;53.314;5.710;2022-12-07T13:15:42;5.10;99.90
53844;DHT22;39744;53.314;5.710;2022-12-07T13:29:10;4.30;99.90
53844;DHT22;39744;53.314;5.710;2022-12-07T13:34:33;4.40;99.90
53844;DHT22;39744;53.314;5.710;2022-12-07T13:37:01;4.40;99.90
53844;DHT22;39744;53.314;5.710;2022-12-07T13:39:28;4.40;99.90
53844;DHT22;39744;53.314;5.710;2022-12-07T13:41:58;4.40;99.90
53844;DHT22;39744;53.314;5.710;2022-12-07T13:44:27;4.40;99.90
53844;DHT22;39744;53.314;5.710;2022-12-07T13:47:13;4.50;99.90
53844;DHT22;39744;53.314;5.710;2022-12-07T13:49:55;4.40;99.90
53844;DHT22;39744;53.314;5.710;2022-12-07T13:52:29;4.40;99.90
53844;DHT22;39744;53.314;5.710;2022-12-07T13:57:32;4.30;99.90
53844;DHT22;39744;53.314;5.710;2022-12-07T14:00:00;4.30;99.90
53844;DHT22;39744;53.314;5.710;2022-12-07T14:02:32;4.30;99.90
53844;DHT22;39744;53.314;5.710;2022-12-07T14:05:23;4.30;99.90
53844;DHT22;39744;53.314;5.710;2022-12-07T14:08:01;4.30;99.90
53844;DHT22;39744;53.314;5.710;2022-12-07T14:10:29;4.40;99.90
53844;DHT22;39744;53.314;5.710;2022-12-07T14:12:57;4.40;99.90
53844;DHT22;39744;53.314;5.710;2022-12-07T14:15:29;4.40;99.90
53844;DHT22;39744;53.314;5.710;2022-12-07T14:17:56;4.40;99.90
53844;DHT22;39744;53.314;5.710;2022-12-07T14:20:35;4.40;99.90
53844;DHT22;39744;53.314;5.710;2022-12-07T14:23:03;4.40;99.90
53844;DHT22;39744;53.314;5.710;2022-12-07T14:25:46;4.40;99.90
53844;DHT22;39744;53.314;5.710;2022-12-07T14:28:29;4.50;99.90
53844;DHT22;39744;53.314;5.710;2022-12-07T14:30:56;4.60;99.90
53844;DHT22;39744;53.314;5.710;2022-12-07T14:33:22;4.70;99.90
53844;DHT22;39744;53.314;5.710;2022-12-07T14:35:49;4.80;99.90
53844;DHT22;39744;53.314;5.710;2022-12-07T14:38:15;4.90;99.90
53844;DHT22;39744;53.314;5.710;2022-12-07T14:40:43;4.90;99.90
53844;DHT22;39744;53.314;5.710;2022-12-07T14:43:12;4.70;99.90
53844;DHT22;39744;53.314;5.710;2022-12-07T14:45:38;4.60;99.90
53844;DHT22;39744;53.314;5.710;2022-12-07T14:48:05;4.60;99.90
53844;DHT22;39744;53.314;5.710;2022-12-07T14:50:36;4.60;99.90
53844;DHT22;39744;53.314;5.710;2022-12-07T14:53:12;4.60;99.90
53844;DHT22;39744;53.314;5.710;2022-12-07T14:55:39;4.40;99.90
53844;DHT22;39744;53.314;5.710;2022-12-07T14:58:06;4.40;99.90
53844;DHT22;39744;53.314;5.710;2022-12-07T15:00:35;4.20;99.90
53844;DHT22;39744;53.314;5.710;2022-12-07T15:03:00;4.20;99.90
53844;DHT22;39744;53.314;5.710;2022-12-07T15:05:26;4.10;99.90
53844;DHT22;39744;53.314;5.710;2022-12-07T15:07:51;4.10;99.90
53844;DHT22;39744;53.314;5.710;2022-12-07T15:10:28;4.10;99.90
53844;DHT22;39744;53.314;5.710;2022-12-07T15:12:55;4.10;99.90
53844;DHT22;39744;53.314;5.710;2022-12-07T15:15:44;4.20;99.90
53844;DHT22;39744;53.314;5.710;2022-12-07T15:18:09;4.30;99.90
53844;DHT22;39744;53.314;5.710;2022-12-07T15:20:35;4.50;99.90
53844;DHT22;39744;53.314;5.710;2022-12-07T15:23:01;5.10;99.90
53844;DHT22;39744;53.314;5.710;2022-12-07T15:25:26;4.60;99.90
53844;DHT22;39744;53.314;5.710;2022-12-07T15:27:52;4.10;99.90
53844;DHT22;39744;53.314;5.710;2022-12-07T15:30:18;3.80;99.90
53844;DHT22;39744;53.314;5.710;2022-12-07T15:32:43;4.00;99.90
53844;DHT22;39744;53.314;5.710;2022-12-07T15:35:09;5.60;99.90
53844;DHT22;39744;53.314;5.710;2022-12-07T15:37:35;4.00;99.90
53844;DHT22;39744;53.314;5.710;2022-12-07T15:40:02;4.80;99.90
53844;DHT22;39744;53.314;5.710;2022-12-07T15:42:27;3.80;99.90
53844;DHT22;39744;53.314;5.710;2022-12-07T15:44:53;4.50;99.90
53844;DHT22;39744;53.314;5.710;2022-12-07T15:47:33;3.40;99.90
53844;DHT22;39744;53.314;5.710;2022-12-07T15:49:59;3.60;99.90
53844;DHT22;39744;53.314;5.710;2022-12-07T15:52:24;3.40;99.90
53844;DHT22;39744;53.314;5.710;2022-12-07T15:54:50;3.10;99.90
53844;DHT22;39744;53.314;5.710;2022-12-07T15:57:16;3.20;99.90
53844;DHT22;39744;53.314;5.710;2022-12-07T15:59:41;4.20;99.90
53844;DHT22;39744;53.314;5.710;2022-12-07T16:02:09;4.80;99.90
53844;DHT22;39744;53.314;5.710;2022-12-07T16:04:36;4.30;99.90
53844;DHT22;39744;53.314;5.710;2022-12-07T16:07:02;4.10;99.90
53844;DHT22;39744;53.314;5.710;2022-12-07T16:09:28;4.20;99.90
53844;DHT22;39744;53.314;5.710;2022-12-07T16:11:54;3.30;99.90
53844;DHT22;39744;53.314;5.710;2022-12-07T16:14:20;4.10;99.90
53844;DHT22;39744;53.314;5.710;2022-12-07T16:16:47;3.50;99.90
53844;DHT22;39744;53.314;5.710;2022-12-07T16:19:13;3.60;99.90
53844;DHT22;39744;53.314;5.710;2022-12-07T16:21:38;3.20;99.90
53844;DHT22;39744;53.314;5.710;2022-12-07T16:24:04;3.80;99.90
53844;DHT22;39744;53.314;5.710;2022-12-07T16:26:30;3.70;99.90
53844;DHT22;39744;53.314;5.710;2022-12-07T16:28:56;3.50;99.90
53844;DHT22;39744;53.314;5.710;2022-12-07T16:31:24;4.10;99.90
53844;DHT22;39744;53.314;5.710;2022-12-07T16:33:52;3.60;99.90
53844;DHT22;39744;53.314;5.710;2022-12-07T16:36:18;3.80;99.90
53844;DHT22;39744;53.314;5.710;2022-12-07T16:38:46;3.90;99.90
53844;DHT22;39744;53.314;5.710;2022-12-07T16:41:13;4.10;99.90
53844;DHT22;39744;53.314;5.710;2022-12-07T16:43:40;3.90;99.90
53844;DHT22;39744;53.314;5.710;2022-12-07T16:46:05;4.00;99.90
53844;DHT22;39744;53.314;5.710;2022-12-07T16:48:31;4.00;99.90
53844;DHT22;39744;53.314;5.710;2022-12-07T16:51:03;4.00;99.90
53844;DHT22;39744;53.314;5.710;2022-12-07T16:53:29;3.90;99.90
53844;DHT22;39744;53.314;5.710;2022-12-07T16:55:55;6.10;99.90
53844;DHT22;39744;53.314;5.710;2022-12-07T16:58:21;4.10;99.90
53844;DHT22;39744;53.314;5.710;2022-12-07T17:00:46;3.80;99.90
53844;DHT22;39744;53.314;5.710;2022-12-07T17:03:12;3.80;99.90
53844;DHT22;39744;53.314;5.710;2022-12-07T17:05:42;3.60;99.90
53844;DHT22;39744;53.314;5.710;2022-12-07T17:08:09;3.70;99.90
53844;DHT22;39744;53.314;5.710;2022-12-07T17:10:37;3.60;99.90
53844;DHT22;39744;53.314;5.710;2022-12-07T17:13:03;3.60;99.90
53844;DHT22;39744;53.314;5.710;2022-12-07T17:16:04;3.40;99.90
53844;DHT22;39744;53.314;5.710;2022-12-07T17:18:32;3.50;99.90
53844;DHT22;39744;53.314;5.710;2022-12-07T17:21:03;3.40;99.90
53844;DHT22;39744;53.314;5.710;2022-12-07T17:23:30;3.80;99.90
53844;DHT22;39744;53.314;5.710;2022-12-07T17:25:56;4.30;99.90
53844;DHT22;39744;53.314;5.710;2022-12-07T17:28:21;3.30;99.90
53844;DHT22;39744;53.314;5.710;2022-12-07T17:30:47;3.30;99.90
53844;DHT22;39744;53.314;5.710;2022-12-07T17:33:12;3.20;99.90
53844;DHT22;39744;53.314;5.710;2022-12-07T17:35:38;3.30;99.90
53844;DHT22;39744;53.314;5.710;2022-12-07T17:38:04;2.70;99.90
53844;DHT22;39744;53.314;5.710;2022-12-07T17:40:29;4.10;99.90
53844;DHT22;39744;53.314;5.710;2022-12-07T17:42:55;3.20;99.90
53844;DHT22;39744;53.314;5.710;2022-12-07T17:45:20;3.10;99.90
53844;DHT22;39744;53.314;5.710;2022-12-07T17:47:46;3.10;99.90
53844;DHT22;39744;53.314;5.710;2022-12-07T17:50:12;3.20;99.90
53844;DHT22;39744;53.314;5.710;2022-12-07T17:52:39;3.00;99.90